Time;durP1;ratioP1;P1;durP2;ratioP2;P2;SDS_P1;SDS_P2;PMS_P1;PMS_P2;Temp;Humidity;BMP_temperature;BMP_pressure;BME280_temperature;BME280_humidity;BME280_pressure;Samples;Min_cycle;Max_cycle;Signal;HPM_P1;HPM_P2
2023/05/30 00:01:39;;;;;;;11.18;2.85;;;10.60;99.90;;;;;;5084197;28;20040;-84
2023/05/30 00:04:05;;;;;;;8.57;2.30;;;10.60;99.90;;;;;;5083515;28;20085;-84
2023/05/30 00:06:31;;;;;;;12.93;2.55;;;10.60;99.90;;;;;;5093406;28;20039;-84
2023/05/30 00:08:57;;;;;;;11.27;2.33;;;10.60;99.90;;;;;;5102863;28;20036;-84
2023/05/30 00:11:23;;;;;;;13.30;4.03;;;10.70;99.90;;;;;;5102701;28;20035;-84
2023/05/30 00:13:50;;;;;;;10.15;2.17;;;10.70;99.90;;;;;;5116836;28;20061;-84
2023/05/30 00:16:19;;;;;;;13.25;2.58;;;10.70;99.90;;;;;;5104387;28;20065;-84
2023/05/30 00:18:45;;;;;;;13.20;3.10;;;10.70;99.90;;;;;;5099883;28;20126;-84
2023/05/30 00:21:11;;;;;;;14.00;2.78;;;10.70;99.90;;;;;;5110420;28;20050;-84
2023/05/30 00:23:39;;;;;;;13.30;2.75;;;10.80;99.90;;;;;;5110908;28;20043;-84
2023/05/30 00:26:05;;;;;;;9.95;2.22;;;10.80;99.90;;;;;;5110592;28;20056;-84
2023/05/30 00:28:31;;;;;;;11.95;2.88;;;10.90;99.90;;;;;;5111801;28;20028;-84
2023/05/30 00:30:56;;;;;;;10.18;2.40;;;10.90;99.90;;;;;;5111265;28;20514;-84
2023/05/30 00:33:22;;;;;;;14.27;2.92;;;11.00;99.90;;;;;;5110545;28;20071;-84
2023/05/30 00:35:48;;;;;;;12.48;2.97;;;11.00;99.90;;;;;;5111844;28;20392;-84
2023/05/30 00:38:15;;;;;;;11.85;3.30;;;11.00;99.90;;;;;;5111672;28;20182;-84
2023/05/30 00:40:40;;;;;;;12.45;3.33;;;11.00;99.90;;;;;;5110465;28;20043;-84
2023/05/30 00:43:06;;;;;;;13.90;2.67;;;11.00;99.90;;;;;;5110553;28;20126;-84
2023/05/30 00:45:32;;;;;;;13.55;2.72;;;11.10;99.90;;;;;;5110547;28;20047;-84
2023/05/30 00:47:58;;;;;;;13.23;2.95;;;11.10;99.90;;;;;;5110681;28;20039;-84
2023/05/30 00:50:26;;;;;;;14.60;3.17;;;11.10;99.90;;;;;;5111768;28;20508;-84
2023/05/30 00:52:53;;;;;;;13.23;3.47;;;11.10;99.90;;;;;;5114174;28;20054;-84
2023/05/30 00:55:20;;;;;;;14.52;3.25;;;11.20;99.90;;;;;;5114234;28;20039;-84
2023/05/30 00:57:46;;;;;;;13.80;2.90;;;11.20;99.90;;;;;;5114199;28;20114;-84
2023/05/30 01:00:13;;;;;;;14.52;3.08;;;11.20;99.90;;;;;;5114935;28;20412;-84
2023/05/30 01:02:40;;;;;;;11.02;3.05;;;11.30;99.90;;;;;;5115399;28;20040;-84
2023/05/30 01:05:06;;;;;;;11.85;3.30;;;11.30;99.90;;;;;;5114171;28;20687;-84
2023/05/30 01:07:33;;;;;;;14.00;3.05;;;11.30;99.90;;;;;;5097208;28;20047;-84
2023/05/30 01:09:59;;;;;;;15.02;3.35;;;11.30;99.90;;;;;;5114760;28;20035;-84
2023/05/30 01:12:55;;;;;;;14.93;4.68;;;11.40;99.90;;;;;;5097069;28;20085;-84
2023/05/30 01:15:25;;;;;;;14.00;2.85;;;11.50;99.90;;;;;;5113793;28;20047;-84
2023/05/30 01:17:51;;;;;;;11.63;2.72;;;11.50;99.90;;;;;;5114991;28;20047;-84
2023/05/30 01:20:20;;;;;;;14.50;2.97;;;11.50;99.90;;;;;;5113456;28;20040;-83
2023/05/30 01:23:06;;;;;;;17.20;5.45;;;11.60;99.90;;;;;;5096619;28;20054;-84
2023/05/30 01:25:35;;;;;;;14.15;3.67;;;11.60;99.90;;;;;;5113514;28;20068;-84
2023/05/30 01:28:13;;;;;;;12.70;3.22;;;11.60;99.90;;;;;;5113466;28;20058;-84
2023/05/30 01:30:44;;;;;;;10.30;2.60;;;11.60;99.90;;;;;;5113134;28;20063;-84
2023/05/30 01:33:12;;;;;;;11.48;3.25;;;11.60;99.90;;;;;;5113462;28;20048;-84
2023/05/30 01:35:37;;;;;;;13.10;3.20;;;11.70;99.90;;;;;;5113735;28;20104;-84
2023/05/30 01:38:03;;;;;;;12.73;3.50;;;11.70;99.90;;;;;;5101083;28;20513;-84
2023/05/30 01:40:29;;;;;;;10.82;2.72;;;11.70;99.90;;;;;;5079375;28;20397;-84
2023/05/30 01:43:15;;;;;;;11.93;3.00;;;11.70;99.90;;;;;;5096305;28;20047;-84
2023/05/30 01:46:08;;;;;;;10.30;2.88;;;11.70;99.90;;;;;;5114558;28;20058;-84
2023/05/30 01:48:34;;;;;;;;;;;11.80;99.90;;;;;;5096439;28;20048;-84
2023/05/30 01:51:06;;;;;;;10.48;2.90;;;11.80;99.90;;;;;;5114041;28;19927;-84
2023/05/30 01:53:38;;;;;;;10.02;3.13;;;11.80;99.90;;;;;;5096139;28;20044;-84
2023/05/30 01:56:08;;;;;;;16.70;3.50;;;11.80;99.90;;;;;;5096104;28;20043;-84
2023/05/30 01:58:36;;;;;;;11.25;3.22;;;11.80;99.90;;;;;;5096187;28;20533;-84
2023/05/30 02:01:04;;;;;;;11.75;3.10;;;11.80;99.90;;;;;;5095026;28;20183;-84
2023/05/30 02:03:30;;;;;;;12.60;3.65;;;11.80;99.90;;;;;;5095609;28;20568;-84
2023/05/30 02:05:56;;;;;;;13.73;4.95;;;11.80;99.90;;;;;;5095824;28;20047;-84
2023/05/30 02:08:22;;;;;;;13.25;2.88;;;11.90;99.90;;;;;;5095809;28;20045;-84
2023/05/30 02:10:47;;;;;;;16.13;5.07;;;11.90;99.90;;;;;;5095303;28;20039;-84
2023/05/30 02:13:13;;;;;;;13.88;3.65;;;12.00;99.90;;;;;;5095740;28;20047;-84
2023/05/30 02:15:40;;;;;;;12.52;3.45;;;12.00;99.90;;;;;;5095565;28;20100;-84
2023/05/30 02:18:06;;;;;;;13.05;3.78;;;11.90;99.90;;;;;;5095845;28;20287;-84
2023/05/30 02:20:31;;;;;;;12.68;3.85;;;11.90;99.90;;;;;;5095109;28;20069;-83
2023/05/30 02:22:57;;;;;;;12.75;4.93;;;11.90;99.90;;;;;;5095529;28;20047;-84
2023/05/30 02:25:23;;;;;;;11.82;3.53;;;12.00;99.90;;;;;;5095617;28;20052;-84
2023/05/30 02:27:50;;;;;;;10.55;2.65;;;12.00;99.90;;;;;;5095372;28;20040;-84
2023/05/30 02:30:16;;;;;;;11.50;3.35;;;11.90;99.90;;;;;;5077612;28;20043;-84
2023/05/30 02:32:42;;;;;;;11.43;2.80;;;11.90;99.90;;;;;;5095359;28;20055;-84
2023/05/30 02:35:08;;;;;;;13.50;3.20;;;11.90;99.90;;;;;;5095206;28;20043;-84
2023/05/30 02:37:34;;;;;;;11.48;3.03;;;11.90;99.90;;;;;;5113563;28;20116;-84
2023/05/30 02:39:59;;;;;;;10.63;3.00;;;11.90;99.90;;;;;;5095030;28;20089;-84
2023/05/30 02:42:25;;;;;;;10.00;3.55;;;11.90;99.90;;;;;;5095182;28;20044;-84
2023/05/30 02:44:51;;;;;;;12.90;3.03;;;11.90;99.90;;;;;;5095119;28;20055;-84
2023/05/30 02:47:16;;;;;;;10.85;3.20;;;12.00;99.90;;;;;;5095351;28;20035;-84
2023/05/30 02:49:42;;;;;;;9.02;2.67;;;11.90;99.90;;;;;;5094540;28;20527;-84
2023/05/30 02:52:08;;;;;;;14.27;3.75;;;11.90;99.90;;;;;;5095164;28;20420;-84
2023/05/30 02:54:34;;;;;;;9.52;3.78;;;11.90;99.90;;;;;;5094851;28;20039;-84
2023/05/30 02:57:01;;;;;;;14.95;2.90;;;11.90;99.90;;;;;;5095125;28;20095;-84
2023/05/30 02:59:27;;;;;;;10.27;3.13;;;11.90;99.90;;;;;;5094508;28;20063;-84
2023/05/30 03:01:52;;;;;;;9.93;2.65;;;11.90;99.90;;;;;;5094914;28;20122;-84
2023/05/30 03:04:18;;;;;;;12.00;3.75;;;11.90;99.90;;;;;;5094666;28;20039;-84
2023/05/30 03:06:44;;;;;;;10.15;3.03;;;11.90;99.90;;;;;;5094736;28;20036;-84
2023/05/30 03:09:11;;;;;;;9.93;3.15;;;12.00;99.90;;;;;;5094731;28;20040;-84
2023/05/30 03:11:36;;;;;;;9.73;2.65;;;11.90;99.90;;;;;;5094127;28;20071;-83
2023/05/30 03:14:02;;;;;;;14.85;3.70;;;11.90;99.90;;;;;;5094242;28;20074;-84
2023/05/30 03:16:28;;;;;;;17.35;3.67;;;11.90;99.90;;;;;;5094575;28;20047;-84
2023/05/30 03:18:54;;;;;;;12.43;3.00;;;11.90;99.90;;;;;;5094263;28;20039;-84
2023/05/30 03:21:22;;;;;;;9.07;2.40;;;11.90;99.90;;;;;;5112389;28;20039;-84
2023/05/30 03:23:49;;;;;;;11.93;3.28;;;12.00;99.90;;;;;;5094246;28;20493;-83
2023/05/30 03:26:15;;;;;;;10.27;2.80;;;12.00;99.90;;;;;;5094328;28;20409;-84
2023/05/30 03:28:41;;;;;;;14.68;3.83;;;12.00;99.90;;;;;;5094508;28;20461;-84
2023/05/30 03:31:06;;;;;;;14.65;4.53;;;12.00;99.90;;;;;;5111987;28;20117;-84
2023/05/30 03:33:32;;;;;;;9.65;2.80;;;12.00;99.90;;;;;;5094174;28;20037;-84
2023/05/30 03:35:58;;;;;;;10.50;2.88;;;12.10;99.90;;;;;;5112392;28;20065;-84
2023/05/30 03:38:23;;;;;;;10.90;3.05;;;12.00;99.90;;;;;;5094249;28;20550;-84
2023/05/30 03:40:49;;;;;;;11.85;3.10;;;12.00;99.90;;;;;;5093869;28;20047;-84
2023/05/30 03:43:15;;;;;;;15.73;5.53;;;12.00;99.90;;;;;;5094311;28;20043;-84
2023/05/30 03:45:40;;;;;;;13.15;3.03;;;12.10;99.90;;;;;;5094128;28;20043;-84
2023/05/30 03:48:06;;;;;;;9.23;3.03;;;12.10;99.90;;;;;;5077443;28;20049;-84
2023/05/30 03:50:31;;;;;;;13.52;3.83;;;12.10;99.90;;;;;;5111701;28;20036;-84
2023/05/30 03:52:57;;;;;;;14.55;3.83;;;12.10;99.90;;;;;;5094270;28;20047;-84
2023/05/30 03:55:22;;;;;;;15.10;4.05;;;12.10;99.90;;;;;;5094022;28;20042;-84
2023/05/30 03:57:48;;;;;;;11.73;3.90;;;12.10;99.90;;;;;;5112235;28;20075;-84
2023/05/30 04:00:14;;;;;;;11.57;3.05;;;12.10;99.90;;;;;;5093642;28;20044;-84
2023/05/30 04:02:39;;;;;;;10.00;3.20;;;12.10;99.90;;;;;;5094108;28;20397;-84
2023/05/30 04:05:05;;;;;;;12.98;3.22;;;12.10;99.90;;;;;;5093740;28;20400;-84
2023/05/30 04:07:35;;;;;;;13.10;3.35;;;12.10;99.90;;;;;;5093910;28;20119;-84
2023/05/30 04:10:04;;;;;;;11.32;3.33;;;12.20;99.90;;;;;;5111529;28;20043;-84
2023/05/30 04:12:30;;;;;;;9.25;3.00;;;12.20;99.90;;;;;;5093747;28;20421;-84
2023/05/30 04:14:55;;;;;;;13.60;3.13;;;12.10;99.90;;;;;;5093736;28;20044;-84
2023/05/30 04:17:21;;;;;;;13.73;3.30;;;12.20;99.90;;;;;;5111895;28;20044;-84
2023/05/30 04:19:47;;;;;;;14.60;3.33;;;12.20;99.90;;;;;;5093182;28;20040;-84
2023/05/30 04:22:13;;;;;;;10.85;2.95;;;12.20;99.90;;;;;;5093701;28;20075;-84
2023/05/30 04:24:38;;;;;;;13.90;4.60;;;12.20;99.90;;;;;;5094305;28;20078;-84
2023/05/30 04:27:04;;;;;;;16.38;3.80;;;12.30;99.90;;;;;;5097670;28;20049;-84
2023/05/30 04:29:30;;;;;;;11.63;3.22;;;12.40;99.90;;;;;;5097131;28;20052;-84
2023/05/30 04:31:56;;;;;;;10.40;3.08;;;12.30;99.90;;;;;;5097733;28;20040;-84
2023/05/30 04:34:24;;;;;;;11.55;2.85;;;12.40;99.90;;;;;;5097824;28;20112;-83
2023/05/30 04:36:53;;;;;;;10.63;3.72;;;12.40;99.90;;;;;;5115912;28;20445;-84
2023/05/30 04:39:19;;;;;;;11.45;3.08;;;12.40;99.90;;;;;;5097692;28;20063;-84
2023/05/30 04:41:44;;;;;;;12.48;3.88;;;12.50;99.90;;;;;;5097197;28;20524;-84
2023/05/30 04:44:10;;;;;;;15.48;3.05;;;12.50;99.90;;;;;;5097439;28;20043;-84
2023/05/30 04:46:36;;;;;;;12.85;2.97;;;12.50;99.90;;;;;;5097629;28;20050;-84
2023/05/30 04:49:02;;;;;;;12.18;4.65;;;12.50;99.90;;;;;;5097257;28;20500;-84
2023/05/30 04:51:28;;;;;;;13.82;4.95;;;12.60;99.90;;;;;;5096932;28;20039;-84
2023/05/30 04:53:54;;;;;;;11.02;2.90;;;12.80;99.90;;;;;;5115564;28;20036;-84
2023/05/30 04:56:20;;;;;;;13.77;2.88;;;12.80;99.90;;;;;;5097472;28;20048;-84
2023/05/30 04:58:48;;;;;;;9.90;2.75;;;12.70;99.90;;;;;;5097025;28;20043;-84
2023/05/30 05:01:14;;;;;;;11.52;2.95;;;12.70;99.90;;;;;;5096825;28;20115;-84
2023/05/30 05:03:40;;;;;;;11.68;3.20;;;12.70;99.90;;;;;;5097050;28;20048;-84
2023/05/30 05:06:07;;;;;;;14.98;4.75;;;12.80;99.90;;;;;;5097245;28;20524;-84
2023/05/30 05:08:36;;;;;;;12.63;3.03;;;12.90;99.90;;;;;;5097211;28;20070;-84
2023/05/30 05:11:04;;;;;;;14.43;4.28;;;12.90;99.90;;;;;;5096559;28;20044;-84
2023/05/30 05:13:30;;;;;;;13.48;3.25;;;13.00;99.90;;;;;;5115105;28;20473;-84
2023/05/30 05:15:56;;;;;;;9.73;3.17;;;13.00;99.90;;;;;;5097090;28;20501;-84
2023/05/30 05:18:22;;;;;;;10.52;3.25;;;13.00;99.90;;;;;;5096608;28;20043;-84
2023/05/30 05:20:48;;;;;;;13.13;3.50;;;13.00;99.90;;;;;;5096715;28;20047;-84
2023/05/30 05:23:14;;;;;;;14.52;3.60;;;13.00;99.90;;;;;;5096634;28;20515;-84
2023/05/30 05:25:40;;;;;;;15.07;4.57;;;13.10;99.90;;;;;;5102034;27;20043;-84
2023/05/30 05:28:06;;;;;;;15.15;5.15;;;13.20;99.90;;;;;;5113859;27;20082;-84
2023/05/30 05:30:31;;;;;;;13.77;3.28;;;13.20;99.90;;;;;;5116549;27;20118;-83
2023/05/30 05:32:57;;;;;;;9.93;3.17;;;13.20;99.90;;;;;;5117202;27;20500;-84
2023/05/30 05:35:23;;;;;;;12.45;4.45;;;13.20;99.90;;;;;;5116728;27;20122;-83
2023/05/30 05:37:49;;;;;;;13.27;3.60;;;13.30;99.90;;;;;;5135213;27;20027;-84
2023/05/30 05:40:14;;;;;;;14.48;3.70;;;13.30;99.90;;;;;;5134672;27;20051;-84
2023/05/30 05:42:42;;;;;;;11.75;3.22;;;13.30;99.90;;;;;;5135100;27;20039;-84
2023/05/30 05:45:08;;;;;;;15.95;2.70;;;13.40;99.90;;;;;;5116603;27;20054;-84
2023/05/30 05:47:34;;;;;;;13.73;4.25;;;13.40;99.90;;;;;;5116486;27;20042;-84
2023/05/30 05:50:00;;;;;;;15.07;5.00;;;13.50;99.90;;;;;;5116394;27;20043;-84
2023/05/30 05:52:26;;;;;;;11.20;3.22;;;13.60;99.90;;;;;;5134956;27;20042;-84
2023/05/30 05:54:52;;;;;;;15.20;4.43;;;13.60;99.90;;;;;;5134815;27;20496;-84
2023/05/30 05:57:17;;;;;;;14.63;4.60;;;13.70;99.90;;;;;;5113244;27;20431;-84
2023/05/30 05:59:43;;;;;;;9.15;2.47;;;13.70;99.90;;;;;;5099984;28;20043;-84
2023/05/30 06:02:08;;;;;;;14.77;3.65;;;13.70;99.90;;;;;;5096014;28;20498;-84
2023/05/30 06:04:34;;;;;;;11.27;3.13;;;13.70;99.90;;;;;;5096018;28;20409;-84
2023/05/30 06:07:00;;;;;;;10.63;2.75;;;13.70;99.90;;;;;;5095997;28;20078;-84
2023/05/30 06:09:30;;;;;;;9.45;2.60;;;13.80;99.90;;;;;;5095483;28;20452;-84
2023/05/30 06:12:00;;;;;;;10.57;3.10;;;13.80;99.90;;;;;;5095601;28;20648;-84
2023/05/30 06:14:26;;;;;;;13.77;4.38;;;13.80;99.90;;;;;;5113822;28;20039;-84
2023/05/30 06:16:53;;;;;;;11.90;3.90;;;13.90;99.90;;;;;;5095601;28;20043;-84
2023/05/30 06:19:18;;;;;;;9.52;3.50;;;13.90;99.90;;;;;;5113781;28;20044;-84
2023/05/30 06:21:44;;;;;;;15.25;4.53;;;13.90;99.90;;;;;;5095228;28;20454;-84
2023/05/30 06:24:10;;;;;;;11.10;2.95;;;13.90;99.90;;;;;;5095507;28;20046;-84
2023/05/30 06:26:35;;;;;;;21.27;3.67;;;13.90;99.90;;;;;;5103460;28;20036;-84
2023/05/30 06:29:01;;;;;;;14.07;3.55;;;13.90;99.90;;;;;;5105737;27;20434;-84
2023/05/30 06:31:26;;;;;;;12.38;3.03;;;13.90;99.90;;;;;;5104631;27;20119;-84
2023/05/30 06:33:52;;;;;;;16.42;4.82;;;13.90;99.90;;;;;;5088463;27;20400;-84
2023/05/30 06:36:18;;;;;;;9.18;2.55;;;14.00;99.90;;;;;;5104341;27;20043;-84
2023/05/30 06:38:44;;;;;;;16.10;4.10;;;14.00;99.90;;;;;;5078247;28;20093;-84
2023/05/30 06:41:09;;;;;;;13.38;3.58;;;14.10;99.90;;;;;;5094980;28;20039;-84
2023/05/30 06:43:35;;;;;;;11.02;3.33;;;14.10;99.90;;;;;;5106156;27;20038;-84
2023/05/30 06:46:00;;;;;;;11.00;2.83;;;14.10;99.90;;;;;;5115509;27;20039;-84
2023/05/30 06:48:26;;;;;;;12.18;3.20;;;14.10;99.90;;;;;;5114930;27;20043;-84
2023/05/30 06:50:52;;;;;;;11.32;2.78;;;14.10;99.90;;;;;;5115047;27;20419;-85
2023/05/30 06:53:17;;;;;;;13.50;3.28;;;14.20;99.90;;;;;;5114929;27;20043;-84
2023/05/30 06:55:43;;;;;;;12.27;4.00;;;14.10;99.90;;;;;;5115077;27;20042;-84
2023/05/30 06:58:08;;;;;;;11.45;3.95;;;14.20;99.90;;;;;;5115325;27;20522;-84
2023/05/30 07:00:34;;;;;;;13.43;4.53;;;14.30;99.90;;;;;;5133258;27;20043;-84
2023/05/30 07:03:00;;;;;;;13.00;2.88;;;14.30;99.90;;;;;;5115148;27;20050;-84
2023/05/30 07:05:27;;;;;;;9.95;2.40;;;14.30;99.90;;;;;;5115319;27;20043;-84
2023/05/30 07:07:52;;;;;;;13.68;4.10;;;14.30;99.90;;;;;;5115078;27;20068;-84
2023/05/30 07:10:18;;;;;;;14.15;4.15;;;14.30;99.90;;;;;;5114565;27;20039;-84
2023/05/30 07:12:44;;;;;;;11.63;3.03;;;14.40;99.90;;;;;;5114292;28;20661;-84
2023/05/30 07:15:10;;;;;;;10.68;2.75;;;14.40;99.90;;;;;;5114122;28;20057;-84
2023/05/30 07:17:35;;;;;;;14.23;4.53;;;14.30;99.90;;;;;;5114001;28;20075;-84
2023/05/30 07:20:01;;;;;;;12.07;4.18;;;14.40;99.90;;;;;;5113982;28;20102;-84
2023/05/30 07:22:26;;;;;;;14.27;3.58;;;14.40;99.90;;;;;;5114304;28;20496;-84
2023/05/30 07:24:52;;;;;;;13.45;3.22;;;14.30;99.90;;;;;;5114025;28;20074;-85
2023/05/30 07:27:18;;;;;;;12.88;4.22;;;14.30;99.90;;;;;;5114308;28;20077;-84
2023/05/30 07:29:44;;;;;;;10.88;2.97;;;14.40;99.90;;;;;;5113363;28;20370;-84
2023/05/30 07:32:13;;;;;;;10.95;4.07;;;14.40;99.90;;;;;;5113755;28;20081;-84
2023/05/30 07:34:39;;;;;;;11.73;3.10;;;14.40;99.90;;;;;;5132281;28;20074;-84
2023/05/30 07:37:05;;;;;;;12.88;3.70;;;14.40;99.90;;;;;;5113749;28;20080;-84
2023/05/30 07:39:31;;;;;;;12.23;3.55;;;14.40;99.90;;;;;;5113544;28;20043;-84
2023/05/30 07:41:56;;;;;;;11.02;3.08;;;14.40;99.90;;;;;;5132132;28;20043;-84
2023/05/30 07:44:22;;;;;;;13.18;4.25;;;14.40;99.90;;;;;;5113896;28;20480;-84
2023/05/30 07:46:48;;;;;;;11.25;4.07;;;14.50;99.90;;;;;;5132090;28;20589;-85
2023/05/30 07:49:14;;;;;;;9.85;3.65;;;14.50;99.90;;;;;;5113455;28;20039;-85
2023/05/30 07:51:39;;;;;;;6.43;2.13;;;14.60;99.90;;;;;;5113235;28;20039;-84
2023/05/30 07:54:05;;;;;;;7.82;2.13;;;14.50;99.90;;;;;;5113617;28;20126;-84
2023/05/30 07:56:31;;;;;;;13.02;4.25;;;14.50;99.90;;;;;;5131958;28;20039;-84
2023/05/30 07:58:57;;;;;;;9.35;2.65;;;14.60;99.90;;;;;;5112434;28;20054;-84
2023/05/30 08:01:23;;;;;;;14.57;3.00;;;14.60;99.90;;;;;;5112881;28;20043;-84
2023/05/30 08:03:48;;;;;;;13.05;4.28;;;14.60;99.90;;;;;;5131754;28;20047;-84
2023/05/30 08:06:14;;;;;;;12.95;4.10;;;14.60;99.90;;;;;;5131854;28;20082;-84
2023/05/30 08:08:40;;;;;;;10.90;3.22;;;14.70;99.90;;;;;;5113186;28;20424;-84
2023/05/30 08:11:06;;;;;;;10.23;2.95;;;14.60;99.90;;;;;;5073635;28;1127090;-84
2023/05/30 08:13:32;;;;;;;9.65;3.50;;;14.60;99.90;;;;;;5114107;28;20589;-84
2023/05/30 08:15:57;;;;;;;11.85;2.90;;;14.60;99.90;;;;;;5114210;28;20047;-84
2023/05/30 08:18:24;;;;;;;9.57;2.75;;;14.60;99.90;;;;;;5105660;28;20035;-84
2023/05/30 08:20:54;;;;;;;14.50;4.32;;;14.50;99.90;;;;;;5109695;28;20046;-85
2023/05/30 08:23:20;;;;;;;14.82;3.50;;;14.60;99.90;;;;;;5114039;28;20039;-84
2023/05/30 08:25:46;;;;;;;12.40;3.95;;;14.60;99.90;;;;;;5114125;28;20386;-85
2023/05/30 08:28:12;;;;;;;10.85;4.00;;;14.60;99.90;;;;;;5114234;28;20035;-85
2023/05/30 08:30:40;;;;;;;9.05;2.65;;;14.70;99.90;;;;;;5113187;28;20421;-85
2023/05/30 08:33:09;;;;;;;10.70;3.70;;;14.60;99.90;;;;;;5113918;28;20047;-85
2023/05/30 08:35:35;;;;;;;9.32;2.75;;;14.70;99.90;;;;;;5113994;28;20043;-85
2023/05/30 08:38:00;;;;;;;12.05;3.20;;;14.70;99.90;;;;;;5113881;28;20046;-84
2023/05/30 08:40:26;;;;;;;11.57;3.40;;;14.70;99.90;;;;;;5113625;28;20039;-85
2023/05/30 08:42:52;;;;;;;9.18;2.75;;;14.70;99.90;;;;;;5096460;28;20130;-85
2023/05/30 08:45:19;;;;;;;7.47;2.63;;;14.70;99.90;;;;;;5096744;28;20126;-85
2023/05/30 08:47:46;;;;;;;9.73;2.92;;;14.70;99.90;;;;;;5132241;28;20031;-84
2023/05/30 08:50:13;;;;;;;9.35;2.85;;;14.70;99.90;;;;;;5113682;28;20103;-85
2023/05/30 08:52:42;;;;;;;10.23;3.42;;;14.70;99.90;;;;;;5114078;28;20467;-85
2023/05/30 08:55:12;;;;;;;8.32;3.38;;;14.70;99.90;;;;;;5113781;28;20041;-85
2023/05/30 08:57:49;;;;;;;11.10;3.47;;;14.70;99.90;;;;;;5113766;28;20087;-85
2023/05/30 09:00:16;;;;;;;7.40;2.45;;;14.80;99.90;;;;;;5113762;28;20065;-85
2023/05/30 09:02:45;;;;;;;9.05;3.00;;;14.80;99.90;;;;;;5113363;28;20508;-85
2023/05/30 09:05:15;;;;;;;9.45;2.88;;;14.80;99.90;;;;;;5113599;28;20047;-85
2023/05/30 09:07:42;;;;;;;8.55;2.45;;;14.80;99.90;;;;;;5096676;28;20073;-85
2023/05/30 09:10:10;;;;;;;8.73;2.10;;;14.90;99.90;;;;;;5113113;27;20039;-85
2023/05/30 09:12:35;;;;;;;8.85;3.50;;;14.80;99.90;;;;;;5117218;27;20043;-85
2023/05/30 09:15:01;;;;;;;7.90;3.60;;;14.90;99.90;;;;;;5117294;27;20031;-85
2023/05/30 09:17:27;;;;;;;9.15;3.17;;;14.90;99.90;;;;;;5117194;27;20039;-85
2023/05/30 09:19:53;;;;;;;10.80;3.97;;;15.00;99.90;;;;;;5116573;27;20042;-85
2023/05/30 09:22:19;;;;;;;5.53;2.08;;;15.00;99.90;;;;;;5116445;27;20042;-85
2023/05/30 09:24:56;;;;;;;7.50;3.00;;;15.00;99.90;;;;;;5135539;27;20034;-85
2023/05/30 09:27:22;;;;;;;5.68;1.85;;;15.00;99.90;;;;;;5135394;27;20043;-85
2023/05/30 09:29:48;;;;;;;9.13;2.65;;;15.00;99.90;;;;;;5116384;27;20039;-84
2023/05/30 09:32:14;;;;;;;8.00;1.92;;;15.00;99.90;;;;;;5116992;27;20035;-85
2023/05/30 09:34:40;;;;;;;6.88;2.50;;;15.00;99.90;;;;;;5117265;27;20078;-84
2023/05/30 09:37:05;;;;;;;5.78;1.83;;;15.10;99.90;;;;;;5117137;27;20485;-85
2023/05/30 09:39:32;;;;;;;7.30;2.17;;;15.00;99.90;;;;;;5116615;27;20047;-85
2023/05/30 09:41:58;;;;;;;8.13;2.80;;;15.00;99.90;;;;;;5116706;27;20043;-85
2023/05/30 09:44:24;;;;;;;8.55;2.42;;;15.10;99.90;;;;;;5135089;27;20095;-85
2023/05/30 09:46:57;;;;;;;7.43;2.60;;;15.10;99.90;;;;;;5116771;27;20556;-84
2023/05/30 09:49:23;;;;;;;;;;;15.20;99.90;;;;;;5099985;27;20063;-85
2023/05/30 09:51:50;;;;;;;13.27;3.58;;;15.20;99.90;;;;;;5111242;27;19962;-85
2023/05/30 09:54:15;;;;;;;27.77;8.35;;;15.20;99.90;;;;;;5106953;27;20051;-85
2023/05/30 09:56:43;;;;;;;8.30;3.17;;;15.20;99.90;;;;;;5105009;27;20035;-85
2023/05/30 09:59:10;;;;;;;8.02;2.72;;;15.40;99.90;;;;;;5116451;27;20129;-85
2023/05/30 10:01:38;;;;;;;7.40;2.40;;;15.40;99.90;;;;;;5116183;27;20495;-85
2023/05/30 10:04:13;;;;;;;17.38;4.15;;;15.40;99.90;;;;;;5134728;27;20061;-85
2023/05/30 10:06:41;;;;;;;8.73;2.65;;;15.40;99.90;;;;;;5134832;27;20039;-85
2023/05/30 10:09:08;;;;;;;7.00;2.70;;;15.40;99.90;;;;;;5116048;27;20572;-84
2023/05/30 10:11:36;;;;;;;6.22;1.95;;;15.50;99.90;;;;;;5115741;27;20084;-85
2023/05/30 10:14:01;;;;;;;8.50;2.53;;;15.40;99.90;;;;;;5116445;27;20250;-85
2023/05/30 10:16:29;;;;;;;6.03;1.70;;;15.40;99.90;;;;;;5116157;27;20652;-85
2023/05/30 10:18:59;;;;;;;5.55;2.25;;;15.40;99.90;;;;;;5116365;27;20039;-85
2023/05/30 10:21:25;;;;;;;7.15;2.00;;;15.50;99.90;;;;;;5134133;27;20043;-85
2023/05/30 10:23:53;;;;;;;6.75;2.28;;;15.50;99.90;;;;;;5098202;27;20164;-85
2023/05/30 10:26:22;;;;;;;7.30;3.00;;;15.40;99.90;;;;;;5098816;27;20114;-85
2023/05/30 10:28:49;;;;;;;6.15;2.08;;;15.50;99.90;;;;;;5116194;27;20043;-85
2023/05/30 10:31:15;;;;;;;8.65;2.00;;;15.50;99.90;;;;;;5115330;27;20115;-85
2023/05/30 10:33:43;;;;;;;7.47;2.00;;;15.50;99.90;;;;;;5115956;27;20168;-85
2023/05/30 10:36:09;;;;;;;7.68;2.40;;;15.50;99.90;;;;;;5115793;27;20043;-85
2023/05/30 10:38:44;;;;;;;6.28;2.38;;;15.60;99.90;;;;;;5098474;27;20043;-85
2023/05/30 10:41:20;;;;;;;6.35;2.25;;;15.60;99.90;;;;;;5115476;27;20499;-85
2023/05/30 10:44:11;;;;;;;9.43;1.80;;;15.70;99.90;;;;;;5115653;27;20228;-85
2023/05/30 10:47:23;;;;;;;5.00;1.70;;;15.60;99.90;;;;;;5133980;27;20385;-85
2023/05/30 10:49:50;;;;;;;6.80;2.47;;;15.60;99.90;;;;;;5105459;27;20049;-85
2023/05/30 10:52:17;;;;;;;11.98;4.18;;;15.60;99.90;;;;;;5105387;27;20113;-85
2023/05/30 10:54:46;;;;;;;9.73;3.13;;;15.70;99.90;;;;;;5099994;27;20054;-85
2023/05/30 10:57:26;;;;;;;5.32;1.83;;;15.70;99.90;;;;;;5103839;27;20042;-85
2023/05/30 10:59:56;;;;;;;7.72;2.22;;;15.70;99.90;;;;;;5105261;27;20050;-85
2023/05/30 11:02:35;;;;;;;6.03;2.40;;;15.80;99.90;;;;;;5104587;27;20039;-85
2023/05/30 11:05:10;;;;;;;5.50;2.40;;;15.80;99.90;;;;;;5102219;27;20477;-85
2023/05/30 11:07:38;;;;;;;6.75;2.53;;;15.80;99.90;;;;;;5109806;27;20045;-85
2023/05/30 11:10:06;;;;;;;4.95;2.03;;;15.90;99.90;;;;;;5114770;27;20404;-85
2023/05/30 11:12:32;;;;;;;7.50;2.58;;;15.90;99.90;;;;;;5108752;27;20038;-85
2023/05/30 11:14:59;;;;;;;6.85;1.80;;;15.90;99.90;;;;;;5103340;27;20036;-85
2023/05/30 11:17:35;;;;;;;5.68;2.55;;;15.90;99.90;;;;;;5104553;27;20103;-85
2023/05/30 11:20:14;;;;;;;5.28;2.10;;;16.00;99.90;;;;;;5119641;27;20040;-85
2023/05/30 11:22:59;;;;;;;4.43;1.95;;;16.00;99.90;;;;;;5074385;28;20084;-85
2023/05/30 11:25:26;;;;;;;3.50;1.48;;;16.00;99.90;;;;;;5074141;28;20048;-85
2023/05/30 11:28:15;;;;;;;4.95;1.83;;;15.90;99.90;;;;;;5074062;28;20097;-85
2023/05/30 11:30:48;;;;;;;5.47;2.05;;;15.90;99.90;;;;;;5073530;28;20048;-85
2023/05/30 11:33:15;;;;;;;;;;;16.00;99.90;;;;;;5074235;28;20040;-85
2023/05/30 11:35:48;;;;;;;6.88;2.50;;;16.00;99.90;;;;;;5073999;28;19965;-85
2023/05/30 11:38:21;;;;;;;4.85;2.08;;;16.10;99.90;;;;;;5057375;28;20044;-85
2023/05/30 11:40:49;;;;;;;6.40;2.10;;;16.20;99.90;;;;;;5073870;28;20079;-85
2023/05/30 11:43:16;;;;;;;7.32;2.78;;;16.30;99.90;;;;;;5097042;28;20092;-85
2023/05/30 11:45:43;;;;;;;7.30;2.95;;;16.40;99.90;;;;;;5123735;27;20046;-85
2023/05/30 11:48:10;;;;;;;4.55;1.90;;;16.40;99.90;;;;;;5120978;27;20434;-85
2023/05/30 11:50:42;;;;;;;5.25;2.20;;;16.40;99.90;;;;;;5086947;27;20043;-85
2023/05/30 11:53:12;;;;;;;3.73;1.37;;;16.50;99.90;;;;;;5104778;28;20043;-85
2023/05/30 11:55:38;;;;;;;4.63;1.77;;;16.50;99.90;;;;;;5103879;28;20281;-85
2023/05/30 11:58:04;;;;;;;4.50;1.80;;;16.50;99.70;;;;;;5105376;28;20042;-85
2023/05/30 12:00:31;;;;;;;4.43;1.48;;;16.40;99.30;;;;;;5102643;28;20081;-85
2023/05/30 12:02:57;;;;;;;3.47;1.58;;;16.40;99.10;;;;;;5103469;28;20047;-85
2023/05/30 12:05:23;;;;;;;4.68;1.75;;;16.40;99.60;;;;;;5087847;28;20054;-85
2023/05/30 12:07:52;;;;;;;7.15;2.25;;;16.40;99.10;;;;;;5093928;28;20035;-85
2023/05/30 12:10:28;;;;;;;4.78;1.88;;;16.50;98.60;;;;;;5093584;28;20044;-85
2023/05/30 12:12:53;;;;;;;3.15;1.30;;;16.50;98.60;;;;;;5093943;28;20106;-85
2023/05/30 12:15:19;;;;;;;3.15;1.35;;;16.40;98.70;;;;;;5093875;28;20111;-85
2023/05/30 12:17:45;;;;;;;6.07;1.98;;;16.30;99.10;;;;;;5093922;28;20122;-85
2023/05/30 12:20:14;;;;;;;6.13;1.73;;;16.40;99.20;;;;;;5093689;28;20048;-85
2023/05/30 12:22:43;;;;;;;6.57;1.63;;;16.40;99.20;;;;;;5094005;28;20504;-85
2023/05/30 12:25:09;;;;;;;4.78;1.90;;;16.30;98.90;;;;;;5093747;28;20046;-85
2023/05/30 12:27:40;;;;;;;6.05;2.10;;;16.30;98.70;;;;;;5093737;28;20039;-85
2023/05/30 12:30:19;;;;;;;5.40;1.73;;;16.30;98.50;;;;;;5076150;28;20079;-85
2023/05/30 12:32:45;;;;;;;4.20;1.73;;;16.30;98.90;;;;;;5093942;28;20111;-85
2023/05/30 12:35:12;;;;;;;6.38;1.65;;;16.30;98.50;;;;;;5093713;28;20046;-84
2023/05/30 12:37:38;;;;;;;3.83;1.42;;;16.30;98.20;;;;;;5093719;28;20523;-85
2023/05/30 12:40:06;;;;;;;3.45;1.55;;;16.30;98.10;;;;;;5093130;28;20043;-85
2023/05/30 12:42:33;;;;;;;6.85;1.92;;;16.40;98.00;;;;;;5076852;28;20044;-85